createdAt,value
2022-08-28T00:00:15.886Z,20.42
2022-08-28T00:01:15.918Z,20.53
2022-08-28T00:02:15.944Z,20.41
2022-08-28T00:03:17.506Z,20.46
2022-08-28T00:04:16.093Z,20.46
2022-08-28T00:05:16.036Z,20.42
2022-08-28T00:06:16.063Z,20.48
2022-08-28T00:07:16.095Z,20.42
2022-08-28T00:08:16.181Z,20.46
2022-08-28T00:09:16.156Z,20.42
2022-08-28T00:10:16.184Z,20.42
2022-08-28T00:11:16.214Z,20.46
2022-08-28T00:12:16.244Z,20.44
2022-08-28T00:13:16.274Z,20.41
2022-08-28T00:14:16.307Z,20.46
2022-08-28T00:15:16.335Z,20.42
2022-08-28T00:16:16.422Z,20.48
2022-08-28T00:17:16.393Z,20.48
2022-08-28T00:18:16.573Z,20.40
2022-08-28T00:19:16.453Z,20.44
2022-08-28T00:20:16.481Z,20.49
2022-08-28T00:21:16.514Z,20.44
2022-08-28T00:22:16.543Z,20.38
2022-08-28T00:23:16.571Z,20.49
2022-08-28T00:24:16.611Z,20.44
2022-08-28T00:25:16.848Z,20.46
2022-08-28T00:26:16.672Z,20.49
2022-08-28T00:27:16.704Z,20.41
2022-08-28T00:28:23.856Z,20.44
2022-08-28T00:29:16.765Z,20.46
2022-08-28T00:31:17.630Z,20.44
2022-08-28T00:32:16.851Z,20.40
2022-08-28T00:33:17.082Z,20.40
2022-08-28T00:36:17.481Z,20.34
2022-08-28T00:37:17.199Z,20.37
2022-08-28T00:38:17.035Z,20.38
2022-08-28T00:39:17.060Z,20.35
2022-08-28T00:40:17.128Z,20.40
2022-08-28T00:41:17.121Z,20.34
2022-08-28T00:42:17.145Z,20.35
2022-08-28T00:43:17.162Z,20.32
2022-08-28T00:44:17.204Z,20.34
2022-08-28T00:45:17.221Z,20.37
2022-08-28T00:46:17.295Z,20.35
2022-08-28T00:47:17.280Z,20.30
2022-08-28T00:48:17.308Z,20.32
2022-08-28T00:49:17.352Z,20.30
2022-08-28T00:50:17.370Z,20.25
2022-08-28T00:51:17.600Z,20.32
2022-08-28T00:52:17.443Z,20.37
2022-08-28T00:53:17.674Z,20.30
2022-08-28T00:54:17.499Z,20.22
2022-08-28T00:55:17.516Z,20.30
2022-08-28T00:56:17.563Z,20.26
2022-08-28T00:57:17.587Z,20.29
2022-08-28T00:59:17.644Z,20.34
2022-08-28T01:03:17.769Z,20.27
2022-08-28T01:05:00.341Z,20.27
2022-08-28T01:06:00.398Z,20.30
2022-08-28T01:07:00.393Z,20.18
2022-08-28T01:08:00.436Z,20.15
2022-08-28T01:09:00.458Z,20.19
2022-08-28T01:10:00.484Z,20.20
2022-08-28T01:11:00.511Z,20.15
2022-08-28T01:12:00.543Z,20.18
2022-08-28T01:13:00.571Z,20.12
2022-08-28T01:14:00.706Z,20.22
2022-08-28T01:15:00.633Z,20.18
2022-08-28T01:16:00.728Z,20.19
2022-08-28T01:17:00.689Z,20.05
2022-08-28T01:18:04.685Z,20.10
2022-08-28T01:19:00.764Z,20.12
2022-08-28T01:20:00.780Z,20.15
2022-08-28T01:21:00.809Z,20.15
2022-08-28T01:22:00.839Z,20.08
2022-08-28T01:23:00.867Z,20.08
2022-08-28T01:24:00.901Z,20.18
2022-08-28T01:25:00.926Z,20.15
2022-08-28T01:26:00.960Z,20.16
2022-08-28T01:27:00.986Z,20.18
2022-08-28T01:28:01.341Z,20.11
2022-08-28T01:29:01.044Z,20.00
2022-08-28T01:30:01.090Z,20.02
2022-08-28T01:31:01.154Z,20.15
2022-08-28T01:32:01.135Z,20.05
2022-08-28T01:33:01.177Z,20.04
2022-08-28T01:34:01.208Z,20.08
2022-08-28T01:35:01.225Z,20.19
2022-08-28T01:36:01.253Z,20.08
2022-08-28T01:37:01.286Z,20.04
2022-08-28T01:38:01.318Z,20.02
2022-08-28T01:39:01.345Z,20.08
2022-08-28T01:40:01.452Z,20.11
2022-08-28T01:42:01.431Z,20.02
2022-08-28T01:44:01.504Z,20.00
2022-08-28T01:46:01.952Z,19.92
2022-08-28T01:47:01.582Z,20.04
2022-08-28T01:48:01.614Z,20.04
2022-08-28T01:49:01.640Z,20.02
2022-08-28T01:50:01.667Z,20.02
2022-08-28T01:51:01.700Z,19.89
2022-08-28T01:52:01.727Z,19.89
2022-08-28T01:53:01.757Z,19.90
2022-08-28T01:54:01.796Z,19.93
2022-08-28T01:55:01.822Z,19.93
2022-08-28T01:56:01.857Z,19.93
2022-08-28T01:57:02.199Z,19.87
2022-08-28T01:58:01.923Z,19.90
2022-08-28T01:59:02.139Z,19.89
2022-08-28T02:00:01.978Z,19.82
2022-08-28T02:01:02.198Z,19.89
2022-08-28T02:02:02.098Z,19.80
2022-08-28T02:03:02.070Z,19.79
2022-08-28T02:04:02.121Z,19.82
2022-08-28T02:05:02.126Z,19.78
2022-08-28T02:06:02.156Z,19.72
2022-08-28T02:07:02.190Z,19.75
2022-08-28T02:08:02.213Z,19.70
2022-08-28T02:09:02.232Z,19.74
2022-08-28T02:10:02.272Z,19.79
2022-08-28T02:11:02.613Z,19.64
2022-08-28T02:12:02.331Z,19.72
2022-08-28T02:13:02.364Z,19.68
2022-08-28T02:14:02.393Z,19.71
2022-08-28T02:15:02.425Z,19.61
2022-08-28T02:16:02.515Z,19.70
2022-08-28T02:17:02.510Z,19.75
2022-08-28T02:18:02.497Z,19.79
2022-08-28T02:19:02.541Z,19.64
2022-08-28T02:20:02.877Z,19.64
2022-08-28T02:21:02.802Z,19.60
2022-08-28T02:23:02.656Z,19.56
2022-08-28T02:25:02.718Z,19.55
2022-08-28T02:26:03.052Z,19.56
2022-08-28T02:27:02.784Z,19.63
2022-08-28T02:29:03.038Z,19.60
2022-08-28T02:30:02.856Z,19.61
2022-08-28T02:31:02.952Z,19.63
2022-08-28T02:32:02.928Z,19.60
2022-08-28T02:33:03.260Z,19.50
2022-08-28T02:34:02.987Z,19.52
2022-08-28T02:35:03.002Z,19.55
2022-08-28T02:36:03.043Z,19.49
2022-08-28T02:38:03.305Z,19.50
2022-08-28T02:40:03.412Z,19.47
2022-08-28T02:41:04.224Z,19.47
2022-08-28T02:42:03.423Z,19.57
2022-08-28T02:43:03.251Z,19.53
2022-08-28T02:44:03.268Z,19.50
2022-08-28T02:45:03.311Z,19.53
2022-08-28T02:46:03.427Z,19.49
2022-08-28T02:47:03.367Z,19.55
2022-08-28T02:48:03.396Z,19.53
2022-08-28T02:49:03.414Z,19.47
2022-08-28T02:50:03.456Z,19.53
2022-08-28T02:51:03.486Z,19.56
2022-08-28T02:52:03.516Z,19.49
2022-08-28T02:53:03.548Z,19.57
2022-08-28T02:54:03.579Z,19.47
2022-08-28T02:55:03.602Z,19.49
2022-08-28T02:56:03.620Z,19.53
2022-08-28T02:57:03.649Z,19.53
2022-08-28T02:58:03.895Z,19.52
2022-08-28T03:00:03.748Z,19.50
2022-08-28T03:01:03.873Z,19.50
2022-08-28T03:02:03.921Z,19.43
2022-08-28T03:03:04.246Z,19.49
2022-08-28T03:04:03.866Z,19.47
2022-08-28T03:05:03.902Z,19.47
2022-08-28T03:06:03.913Z,19.47
2022-08-28T03:08:04.191Z,19.42
2022-08-28T03:09:04.001Z,19.47
2022-08-28T03:10:04.048Z,19.49
2022-08-28T03:11:04.277Z,19.42
2022-08-28T03:12:04.104Z,19.42
2022-08-28T03:13:04.130Z,19.45
2022-08-28T03:14:04.151Z,19.45
2022-08-28T03:15:04.188Z,19.45
2022-08-28T03:16:04.221Z,19.43
2022-08-28T03:17:04.311Z,19.43
2022-08-28T03:18:08.063Z,19.46
2022-08-28T03:19:04.512Z,19.42
2022-08-28T03:20:04.340Z,19.38
2022-08-28T03:23:04.423Z,19.32
2022-08-28T03:24:04.456Z,19.28
2022-08-28T03:25:04.483Z,19.31
2022-08-28T03:26:04.518Z,19.27
2022-08-28T03:27:04.532Z,19.30
2022-08-28T03:28:04.668Z,19.25
2022-08-28T03:29:04.603Z,19.35
2022-08-28T03:30:04.621Z,19.31
2022-08-28T03:31:04.678Z,19.34
2022-08-28T03:32:05.000Z,19.28
2022-08-28T03:33:04.706Z,19.30
2022-08-28T03:34:04.741Z,19.34
2022-08-28T03:35:04.767Z,19.34
2022-08-28T03:36:04.958Z,19.32
2022-08-28T03:37:04.824Z,19.35
2022-08-28T03:38:04.927Z,19.34
2022-08-28T03:39:04.883Z,19.34
2022-08-28T03:40:04.979Z,19.38
2022-08-28T03:41:04.943Z,19.35
2022-08-28T03:42:04.987Z,19.35
2022-08-28T03:43:05.017Z,19.34
2022-08-28T03:44:05.034Z,19.32
2022-08-28T03:45:05.074Z,19.30
2022-08-28T03:46:05.138Z,19.30
2022-08-28T03:47:05.129Z,19.30
2022-08-28T03:48:05.151Z,19.31
2022-08-28T03:49:05.180Z,19.32
2022-08-28T03:50:05.220Z,19.31
2022-08-28T03:51:05.249Z,19.30
2022-08-28T03:52:05.267Z,19.27
2022-08-28T03:53:05.293Z,19.30
2022-08-28T03:54:05.729Z,19.28
2022-08-28T03:55:05.353Z,19.25
2022-08-28T03:56:05.388Z,19.30
2022-08-28T03:57:05.422Z,19.25
2022-08-28T03:58:05.551Z,19.32
2022-08-28T03:59:05.486Z,19.19
2022-08-28T04:00:05.502Z,19.19
2022-08-28T04:01:05.587Z,19.20
2022-08-28T04:02:05.560Z,19.24
2022-08-28T04:03:05.883Z,19.16
2022-08-28T04:04:05.927Z,19.19
2022-08-28T04:05:05.647Z,19.17
2022-08-28T04:06:05.677Z,19.20
2022-08-28T04:07:05.920Z,19.13
2022-08-28T04:08:06.010Z,19.12
2022-08-28T04:09:06.084Z,19.20
2022-08-28T04:10:06.723Z,19.15
2022-08-28T04:11:06.328Z,19.16
2022-08-28T04:12:06.270Z,19.09
2022-08-28T04:13:05.890Z,19.05
2022-08-28T04:14:05.911Z,19.12
2022-08-28T04:15:07.101Z,19.02
2022-08-28T04:17:06.069Z,19.00
2022-08-28T04:18:06.136Z,18.96
2022-08-28T04:19:06.257Z,19.00
2022-08-28T04:20:06.296Z,18.99
2022-08-28T04:21:06.126Z,18.97
2022-08-28T04:22:06.150Z,19.05
2022-08-28T04:23:07.098Z,19.00
2022-08-28T04:24:09.514Z,18.87
2022-08-28T04:25:06.245Z,18.90
2022-08-28T04:26:06.271Z,18.91
2022-08-28T04:27:06.608Z,18.90
2022-08-28T04:29:06.357Z,18.91
2022-08-28T04:30:06.390Z,18.86
2022-08-28T04:31:06.414Z,18.87
2022-08-28T04:32:06.917Z,18.81
2022-08-28T04:33:06.471Z,18.84
2022-08-28T04:34:06.505Z,18.82
2022-08-28T04:36:06.550Z,18.82
2022-08-28T04:37:06.577Z,18.74
2022-08-28T04:39:06.637Z,18.74
2022-08-28T04:41:59.266Z,18.76
2022-08-28T04:42:59.311Z,18.74
2022-08-28T04:43:59.542Z,18.57
2022-08-28T04:44:59.372Z,18.63
2022-08-28T04:45:59.411Z,18.65
2022-08-28T04:46:59.425Z,18.71
2022-08-28T04:48:59.498Z,18.71
2022-08-28T04:49:59.514Z,18.66
2022-08-28T04:50:59.537Z,18.60
2022-08-28T04:51:59.773Z,18.60
2022-08-28T04:52:59.585Z,18.53
2022-08-28T04:53:59.637Z,18.60
2022-08-28T04:54:59.655Z,18.53
2022-08-28T04:55:59.887Z,18.65
2022-08-28T04:56:59.717Z,18.59
2022-08-28T04:58:00.922Z,18.61
2022-08-28T04:58:59.774Z,18.54
2022-08-28T05:01:59.876Z,18.54
2022-08-28T05:05:00.550Z,18.54
2022-08-28T05:08:00.302Z,18.50
2022-08-28T05:09:00.263Z,18.47
2022-08-28T05:11:00.820Z,18.49
2022-08-28T05:12:00.457Z,18.49
2022-08-28T05:14:00.212Z,18.42
2022-08-28T05:15:00.639Z,18.53
2022-08-28T05:16:02.057Z,18.38
2022-08-28T05:17:01.103Z,18.35
2022-08-28T05:18:00.328Z,18.35
2022-08-28T05:23:00.470Z,18.42
2022-08-28T05:24:01.215Z,18.49
2022-08-28T05:25:01.054Z,18.44
2022-08-28T05:27:00.574Z,18.54
2022-08-28T05:28:00.610Z,18.53
2022-08-28T05:29:00.846Z,18.47
2022-08-28T05:30:02.124Z,18.49
2022-08-28T05:31:00.902Z,18.49
2022-08-28T05:32:00.824Z,18.51
2022-08-28T05:33:00.963Z,18.49
2022-08-28T05:35:03.423Z,18.51
2022-08-28T05:36:00.833Z,18.49
2022-08-28T05:37:00.861Z,18.56
2022-08-28T05:38:00.889Z,18.54
2022-08-28T05:39:00.918Z,18.49
2022-08-28T05:40:00.979Z,18.53
2022-08-28T05:47:01.858Z,18.54
2022-08-28T05:48:01.907Z,18.47
2022-08-28T05:52:57.308Z,18.44
2022-08-28T05:53:53.895Z,18.51
2022-08-28T05:54:53.922Z,18.51
2022-08-28T05:55:53.955Z,18.56
2022-08-28T05:56:53.983Z,18.54
2022-08-28T05:57:54.013Z,18.57
2022-08-28T05:58:54.091Z,18.63
2022-08-28T05:59:54.125Z,18.61
2022-08-28T06:00:54.146Z,18.68
2022-08-28T06:01:54.282Z,18.71
2022-08-28T06:02:54.158Z,18.61
2022-08-28T06:03:54.299Z,18.66
2022-08-28T06:04:54.213Z,18.61
2022-08-28T06:05:54.260Z,18.54
2022-08-28T06:06:54.285Z,18.63
2022-08-28T06:07:54.316Z,18.61
2022-08-28T06:08:58.157Z,18.59
2022-08-28T06:09:54.370Z,18.60
2022-08-28T06:10:54.405Z,18.69
2022-08-28T06:11:54.737Z,18.66
2022-08-28T06:12:54.459Z,18.71
2022-08-28T06:13:54.688Z,18.65
2022-08-28T06:15:54.781Z,18.78
2022-08-28T06:16:54.968Z,18.81
2022-08-28T06:17:54.804Z,18.86
2022-08-28T06:18:54.839Z,18.91
2022-08-28T06:19:54.658Z,18.96
2022-08-28T06:20:54.693Z,18.94
2022-08-28T06:21:54.923Z,18.90
2022-08-28T06:22:54.953Z,18.96
2022-08-28T06:23:55.492Z,18.97
2022-08-28T06:24:54.808Z,19.00
2022-08-28T06:25:54.824Z,19.06
2022-08-28T06:27:55.057Z,18.99
2022-08-28T06:28:55.635Z,19.05
2022-08-28T06:29:55.156Z,19.07
2022-08-28T06:31:17.934Z,19.05
2022-08-28T06:31:55.369Z,19.15
2022-08-28T06:32:55.029Z,19.30
2022-08-28T06:33:55.072Z,19.30
2022-08-28T06:34:55.104Z,19.34
2022-08-28T06:36:55.147Z,19.23
2022-08-28T06:37:55.188Z,19.12
2022-08-28T06:38:55.425Z,19.12
2022-08-28T06:40:55.276Z,19.13
2022-08-28T06:41:55.513Z,19.16
2022-08-28T06:42:55.534Z,19.27
2022-08-28T06:43:55.569Z,19.28
2022-08-28T06:44:55.391Z,19.17
2022-08-28T06:45:55.484Z,19.28
2022-08-28T06:47:55.486Z,19.31
2022-08-28T06:48:55.516Z,19.28
2022-08-28T06:49:55.540Z,19.32
2022-08-28T06:50:55.775Z,19.30
2022-08-28T06:51:55.597Z,19.32
2022-08-28T06:52:55.683Z,19.40
2022-08-28T06:53:56.064Z,19.32
2022-08-28T06:54:56.089Z,19.40
2022-08-28T06:55:55.765Z,19.50
2022-08-28T06:57:55.781Z,19.55
2022-08-28T06:59:55.837Z,19.60
2022-08-28T07:01:02.304Z,19.70
2022-08-28T07:01:56.121Z,19.63
2022-08-28T07:02:55.971Z,19.57
2022-08-28T07:03:55.956Z,19.70
2022-08-28T07:04:56.192Z,19.83
2022-08-28T07:06:56.242Z,19.98
2022-08-28T07:07:56.078Z,20.10
2022-08-28T07:08:56.504Z,20.12
2022-08-28T07:09:56.135Z,20.15
2022-08-28T07:10:56.364Z,20.12
2022-08-28T07:11:56.192Z,20.07
2022-08-28T07:13:56.444Z,19.89
2022-08-28T07:14:56.281Z,19.89
2022-08-28T07:15:56.392Z,20.00
2022-08-28T07:16:56.343Z,20.10
2022-08-28T07:17:56.368Z,20.11
2022-08-28T07:18:56.399Z,20.20
2022-08-28T07:19:56.627Z,20.23
2022-08-28T07:20:56.460Z,20.27
2022-08-28T07:21:56.486Z,20.42
2022-08-28T07:22:59.735Z,20.48
2022-08-28T07:23:56.548Z,20.61
2022-08-28T07:25:56.814Z,20.42
2022-08-28T07:26:56.635Z,20.46
2022-08-28T07:27:56.669Z,20.38
2022-08-28T07:29:00.682Z,20.56
2022-08-28T07:29:56.932Z,20.54
2022-08-28T07:30:57.968Z,20.58
2022-08-28T07:34:57.483Z,20.68
2022-08-28T07:35:56.909Z,20.66
2022-08-28T07:39:57.104Z,21.01
2022-08-28T07:40:57.265Z,21.04
2022-08-28T07:43:57.763Z,20.81
2022-08-28T07:47:58.188Z,20.96
2022-08-28T07:49:57.844Z,20.90
2022-08-28T07:50:57.570Z,21.04
2022-08-28T07:51:57.378Z,21.18
2022-08-28T07:52:57.410Z,21.40
2022-08-28T07:53:57.438Z,21.40
2022-08-28T07:54:57.470Z,21.52
2022-08-28T07:55:57.513Z,21.52
2022-08-28T07:57:57.778Z,21.76
2022-08-28T07:58:57.601Z,21.80
2022-08-28T07:59:57.622Z,21.89
2022-08-28T08:00:57.657Z,21.62
2022-08-28T08:01:57.726Z,21.55
2022-08-28T08:02:57.711Z,21.56
2022-08-28T08:04:01.711Z,21.80
2022-08-28T08:04:57.774Z,21.92
2022-08-28T08:05:57.806Z,21.85
2022-08-28T08:06:58.351Z,21.96
2022-08-28T08:07:57.866Z,21.45
2022-08-28T08:08:57.894Z,21.43
2022-08-28T08:09:57.929Z,21.27
2022-08-28T08:10:57.954Z,21.31
2022-08-28T08:11:57.990Z,21.30
2022-08-28T08:12:58.027Z,21.61
2022-08-28T08:13:58.051Z,21.70
2022-08-28T08:14:58.079Z,21.78
2022-08-28T08:15:58.148Z,21.53
2022-08-28T08:16:58.139Z,21.61
2022-08-28T08:17:58.174Z,21.59
2022-08-28T08:18:58.201Z,21.58
2022-08-28T08:19:58.234Z,21.67
2022-08-28T08:20:58.261Z,21.83
2022-08-28T08:21:58.296Z,21.90
2022-08-28T08:22:58.324Z,21.89
2022-08-28T08:23:58.376Z,21.93
2022-08-28T08:24:58.386Z,21.70
2022-08-28T08:25:58.418Z,21.62
2022-08-28T08:27:00.239Z,21.67
2022-08-28T08:27:58.481Z,21.58
2022-08-28T08:28:58.509Z,21.67
2022-08-28T08:29:58.544Z,21.59
2022-08-28T08:30:58.591Z,21.61
2022-08-28T08:31:59.215Z,21.64
2022-08-28T08:32:58.634Z,21.93
2022-08-28T08:33:58.667Z,22.57
2022-08-28T08:34:58.696Z,22.71
2022-08-28T08:35:58.730Z,22.60
2022-08-28T08:36:58.760Z,22.64
2022-08-28T08:38:02.763Z,22.73
2022-08-28T08:39:00.001Z,23.00
2022-08-28T08:39:58.930Z,23.21
2022-08-28T08:40:58.885Z,23.00
2022-08-28T08:41:59.727Z,22.97
2022-08-28T08:42:58.951Z,22.94
2022-08-28T08:44:00.397Z,23.12
2022-08-28T08:44:59.011Z,23.09
2022-08-28T08:45:59.086Z,23.01
2022-08-28T08:46:59.085Z,23.12
2022-08-28T08:48:09.253Z,22.99
2022-08-28T08:48:59.130Z,23.04
2022-08-28T08:50:41.716Z,23.16
2022-08-28T08:51:41.752Z,23.04
2022-08-28T08:52:41.780Z,23.22
2022-08-28T08:53:41.826Z,23.42
2022-08-28T08:54:41.842Z,23.10
2022-08-28T08:55:41.877Z,23.16
2022-08-28T08:56:41.919Z,23.28
2022-08-28T08:58:41.973Z,23.14
2022-08-28T08:59:43.016Z,23.26
2022-08-28T09:00:42.041Z,23.14
2022-08-28T09:01:42.145Z,23.24
2022-08-28T09:02:42.098Z,22.97
2022-08-28T09:03:44.101Z,22.91
2022-08-28T09:04:42.162Z,22.91
2022-08-28T09:05:42.192Z,22.92
2022-08-28T09:06:42.240Z,22.96
2022-08-28T09:07:42.270Z,23.07
2022-08-28T09:08:42.291Z,23.19
2022-08-28T09:09:44.940Z,23.38
2022-08-28T09:11:42.387Z,23.66
2022-08-28T09:12:42.422Z,23.74
2022-08-28T09:13:42.447Z,23.74
2022-08-28T09:14:42.477Z,23.19
2022-08-28T09:15:42.628Z,23.22
2022-08-28T09:16:42.541Z,23.21
2022-08-28T09:17:42.686Z,22.89
2022-08-28T09:18:42.605Z,22.27
2022-08-28T09:19:42.639Z,22.31
2022-08-28T09:20:42.669Z,22.46
2022-08-28T09:21:43.167Z,22.52
2022-08-28T09:22:42.821Z,22.54
2022-08-28T09:23:42.767Z,22.57
2022-08-28T09:24:42.796Z,22.75
2022-08-28T09:25:42.829Z,22.91
2022-08-28T09:26:43.085Z,22.88
2022-08-28T09:27:42.938Z,22.85
2022-08-28T09:28:42.925Z,23.01
2022-08-28T09:29:42.957Z,22.94
2022-08-28T09:30:42.996Z,23.15
2022-08-28T09:31:43.024Z,23.22
2022-08-28T09:32:43.124Z,23.47
2022-08-28T09:33:43.084Z,23.60
2022-08-28T09:34:43.116Z,23.26
2022-08-28T09:35:43.148Z,23.35
2022-08-28T09:36:43.180Z,23.34
2022-08-28T09:37:43.216Z,23.06
2022-08-28T09:38:43.246Z,22.91
2022-08-28T09:39:48.132Z,23.06
2022-08-28T09:40:43.406Z,23.10
2022-08-28T09:41:43.340Z,23.26
2022-08-28T09:42:43.386Z,23.15
2022-08-28T09:43:43.404Z,23.28
2022-08-28T09:44:43.443Z,23.82
2022-08-28T09:45:43.469Z,23.97
2022-08-28T09:46:43.602Z,23.99
2022-08-28T09:47:46.790Z,24.17
2022-08-28T09:48:43.564Z,24.36
2022-08-28T09:49:43.595Z,24.24
2022-08-28T09:50:43.647Z,24.49
2022-08-28T09:51:43.668Z,24.40
2022-08-28T09:52:43.693Z,24.15
2022-08-28T09:53:43.725Z,24.09
2022-08-28T09:54:43.754Z,24.03
2022-08-28T09:55:43.789Z,23.87
2022-08-28T09:56:43.820Z,23.59
2022-08-28T09:57:43.855Z,23.63
2022-08-28T09:58:43.885Z,23.77
2022-08-28T09:59:43.918Z,24.04
2022-08-28T10:00:43.948Z,24.48
2022-08-28T10:01:45.309Z,24.89
2022-08-28T10:02:44.024Z,25.17
2022-08-28T10:03:44.046Z,25.49
2022-08-28T10:04:44.123Z,25.63
2022-08-28T10:05:44.110Z,25.78
2022-08-28T10:06:44.142Z,26.09
2022-08-28T10:07:44.174Z,26.45
2022-08-28T10:08:44.217Z,26.78
2022-08-28T10:09:46.970Z,27.30
2022-08-28T10:10:44.284Z,27.27
2022-08-28T10:11:44.616Z,27.16
2022-08-28T10:12:44.338Z,26.96
2022-08-28T10:13:44.370Z,26.42
2022-08-28T10:14:44.402Z,25.81
2022-08-28T10:15:44.473Z,25.57
2022-08-28T10:16:44.468Z,25.39
2022-08-28T10:17:44.821Z,25.00
2022-08-28T10:18:44.531Z,24.48
2022-08-28T10:19:44.583Z,24.45
2022-08-28T10:21:44.632Z,24.49
2022-08-28T10:22:44.665Z,24.36
2022-08-28T10:23:44.697Z,24.52
2022-08-28T10:24:44.733Z,24.26
2022-08-28T10:27:22.447Z,24.19
2022-08-28T10:29:10.048Z,24.29
2022-08-28T10:30:12.885Z,24.21
2022-08-28T10:31:10.157Z,24.33
2022-08-28T10:32:10.154Z,24.48
2022-08-28T10:33:10.183Z,24.78
2022-08-28T10:34:10.529Z,24.70
2022-08-28T10:35:10.248Z,24.92
2022-08-28T10:36:27.348Z,24.74
2022-08-28T10:37:10.314Z,24.94
2022-08-28T10:38:10.350Z,24.69
2022-08-28T10:39:10.367Z,24.37
2022-08-28T10:40:10.448Z,24.48
2022-08-28T10:41:10.434Z,24.49
2022-08-28T10:42:10.467Z,24.56
2022-08-28T10:43:10.497Z,24.70
2022-08-28T10:44:10.540Z,24.71
2022-08-28T10:45:10.565Z,25.02
2022-08-28T10:46:10.652Z,25.04
2022-08-28T10:47:10.627Z,25.01
2022-08-28T10:54:03.235Z,25.20
2022-08-28T10:55:03.268Z,25.27
2022-08-28T10:56:03.329Z,25.52
2022-08-28T10:57:03.333Z,25.54
2022-08-28T10:58:03.371Z,25.60
2022-08-28T10:59:03.399Z,25.44
2022-08-28T11:00:03.431Z,25.49
2022-08-28T11:01:03.548Z,25.59
2022-08-28T11:02:03.493Z,25.75
2022-08-28T11:03:03.551Z,25.81
2022-08-28T11:04:03.564Z,25.84
2022-08-28T11:05:03.593Z,26.09
2022-08-28T11:06:03.623Z,26.49
2022-08-28T11:07:03.658Z,26.22
2022-08-28T11:08:03.687Z,25.79
2022-08-28T11:09:03.720Z,25.27
2022-08-28T11:10:03.750Z,25.27
2022-08-28T11:11:03.785Z,25.11
2022-08-28T11:12:03.815Z,25.14
2022-08-28T11:13:03.866Z,25.09
2022-08-28T11:14:03.880Z,25.23
2022-08-28T11:15:03.915Z,25.24
2022-08-28T11:16:03.944Z,25.09
2022-08-28T11:17:04.463Z,24.97
2022-08-28T11:18:04.030Z,24.92
2022-08-28T11:19:04.041Z,24.51
2022-08-28T11:20:04.071Z,24.34
2022-08-28T11:21:04.105Z,24.03
2022-08-28T11:22:04.137Z,24.09
2022-08-28T11:23:04.169Z,24.09
2022-08-28T11:24:04.200Z,24.08
2022-08-28T11:25:08.928Z,24.12
2022-08-28T11:26:04.265Z,24.19
2022-08-28T11:27:04.299Z,24.33
2022-08-28T11:28:04.329Z,24.56
2022-08-28T11:29:04.363Z,24.90
2022-08-28T11:30:04.393Z,25.09
2022-08-28T11:31:04.492Z,25.02
2022-08-28T11:32:04.457Z,24.92
2022-08-28T11:33:04.490Z,24.86
2022-08-28T11:34:04.520Z,24.80
2022-08-28T11:35:04.555Z,24.74
2022-08-28T11:36:04.585Z,24.67
2022-08-28T11:37:04.620Z,24.55
2022-08-28T11:38:04.648Z,24.61
2022-08-28T11:39:04.682Z,24.70
2022-08-28T11:40:04.729Z,24.82
2022-08-28T11:41:04.743Z,24.66
2022-08-28T11:42:04.777Z,24.64
2022-08-28T11:43:04.811Z,24.67
2022-08-28T11:44:04.837Z,24.75
2022-08-28T11:45:04.883Z,24.94
2022-08-28T11:46:04.947Z,24.75
2022-08-28T11:47:04.936Z,24.74
2022-08-28T11:48:04.974Z,24.77
2022-08-28T11:49:05.008Z,24.75
2022-08-28T11:50:05.026Z,24.90
2022-08-28T11:51:05.061Z,24.94
2022-08-28T11:52:05.090Z,25.05
2022-08-28T11:53:05.122Z,25.14
2022-08-28T11:54:05.152Z,25.27
2022-08-28T11:55:05.186Z,25.47
2022-08-28T11:56:05.217Z,25.48
2022-08-28T11:57:05.248Z,25.47
2022-08-28T11:58:49.957Z,25.30
2022-08-28T11:59:49.989Z,25.37
2022-08-28T12:00:50.021Z,25.22
2022-08-28T12:01:50.053Z,24.96
2022-08-28T12:02:50.115Z,24.83
2022-08-28T12:03:50.131Z,24.69
2022-08-28T12:04:50.186Z,24.55
2022-08-28T12:05:50.181Z,24.44
2022-08-28T12:06:50.210Z,24.52
2022-08-28T12:07:50.250Z,24.58
2022-08-28T12:08:50.273Z,24.74
2022-08-28T12:09:50.306Z,24.80
2022-08-28T12:10:50.336Z,24.92
2022-08-28T12:11:50.368Z,24.93
2022-08-28T12:12:50.397Z,25.09
2022-08-28T12:13:50.432Z,25.01
2022-08-28T12:14:50.462Z,25.00
2022-08-28T12:15:50.523Z,25.07
2022-08-28T12:16:50.524Z,25.12
2022-08-28T12:17:50.558Z,25.27
2022-08-28T12:18:50.599Z,25.08
2022-08-28T12:19:55.193Z,25.22
2022-08-28T12:20:50.651Z,25.12
2022-08-28T12:21:50.684Z,25.20
2022-08-28T12:22:50.714Z,25.29
2022-08-28T12:23:50.747Z,25.26
2022-08-28T12:24:50.777Z,25.23
2022-08-28T12:25:50.813Z,25.39
2022-08-28T12:26:50.843Z,25.44
2022-08-28T12:27:50.873Z,25.44
2022-08-28T12:28:50.903Z,25.27
2022-08-28T12:29:50.944Z,25.38
2022-08-28T12:30:51.043Z,25.23
2022-08-28T12:31:50.999Z,25.33
2022-08-28T12:32:51.029Z,25.41
2022-08-28T12:33:51.064Z,25.34
2022-08-28T12:34:51.093Z,25.37
2022-08-28T12:35:51.126Z,25.34
2022-08-28T12:36:52.141Z,25.33
2022-08-28T12:37:53.286Z,25.49
2022-08-28T12:38:51.220Z,25.56
2022-08-28T12:39:51.253Z,25.67
2022-08-28T12:40:51.285Z,25.79
2022-08-28T12:41:51.317Z,25.45
2022-08-28T12:42:55.009Z,25.47
2022-08-28T12:43:51.380Z,25.49
2022-08-28T12:44:51.424Z,25.54
2022-08-28T12:45:51.516Z,25.38
2022-08-28T12:46:51.475Z,25.30
2022-08-28T12:47:51.505Z,25.29
2022-08-28T12:48:51.536Z,25.02
2022-08-28T12:49:51.570Z,24.90
2022-08-28T12:50:51.601Z,24.86
2022-08-28T12:51:51.634Z,24.82
2022-08-28T12:52:51.662Z,24.83
2022-08-28T12:53:51.696Z,24.92
2022-08-28T12:54:51.726Z,24.93
2022-08-28T12:55:51.759Z,24.92
2022-08-28T12:56:51.788Z,24.82
2022-08-28T12:57:51.821Z,24.78
2022-08-28T12:58:51.857Z,24.77
2022-08-28T12:59:51.929Z,24.90
2022-08-28T13:00:51.984Z,24.78
2022-08-28T13:01:52.051Z,24.78
2022-08-28T13:02:52.008Z,24.93
2022-08-28T13:03:52.011Z,25.01
2022-08-28T13:04:52.054Z,25.09
2022-08-28T13:05:52.074Z,25.14
2022-08-28T13:06:52.110Z,25.14
2022-08-28T13:07:52.136Z,25.15
2022-08-28T13:08:52.180Z,25.07
2022-08-28T13:09:52.278Z,25.11
2022-08-28T13:10:52.228Z,25.07
2022-08-28T13:11:52.269Z,25.08
2022-08-28T13:12:55.026Z,25.05
2022-08-28T13:13:52.325Z,25.00
2022-08-28T13:14:52.354Z,24.90
2022-08-28T13:15:52.387Z,24.96
2022-08-28T13:16:52.453Z,25.01
2022-08-28T13:17:52.451Z,25.05
2022-08-28T13:18:52.479Z,25.11
2022-08-28T13:19:53.940Z,25.08
2022-08-28T13:20:52.539Z,24.92
2022-08-28T13:21:52.571Z,24.90
2022-08-28T13:22:52.805Z,24.96
2022-08-28T13:23:52.645Z,25.09
2022-08-28T13:24:52.662Z,25.20
2022-08-28T13:25:52.695Z,25.26
2022-08-28T13:26:52.726Z,25.27
2022-08-28T13:27:52.757Z,25.33
2022-08-28T13:28:52.793Z,25.26
2022-08-28T13:29:52.818Z,25.19
2022-08-28T13:30:52.894Z,25.11
2022-08-28T13:31:52.881Z,25.07
2022-08-28T13:32:52.911Z,24.90
2022-08-28T13:33:52.943Z,24.90
2022-08-28T13:34:52.973Z,24.89
2022-08-28T13:35:53.005Z,24.75
2022-08-28T13:36:53.034Z,24.75
2022-08-28T13:37:53.067Z,24.92
2022-08-28T13:38:53.098Z,24.90
2022-08-28T13:39:53.163Z,25.09
2022-08-28T13:40:57.885Z,25.11
2022-08-28T13:41:53.191Z,25.15
2022-08-28T13:42:53.220Z,25.09
2022-08-28T13:43:53.253Z,25.26
2022-08-28T13:44:53.282Z,25.09
2022-08-28T13:45:53.400Z,25.07
2022-08-28T13:46:53.344Z,25.12
2022-08-28T13:47:53.376Z,25.01
2022-08-28T13:48:53.406Z,24.97
2022-08-28T13:49:53.440Z,24.97
2022-08-28T13:50:53.693Z,25.09
2022-08-28T13:51:53.591Z,25.26
2022-08-28T13:52:53.530Z,25.27
2022-08-28T13:53:53.563Z,25.23
2022-08-28T13:54:53.594Z,25.33
2022-08-28T13:55:53.625Z,25.24
2022-08-28T13:56:53.655Z,25.30
2022-08-28T13:57:53.688Z,25.27
2022-08-28T13:58:57.761Z,25.33
2022-08-28T13:59:55.709Z,25.24
2022-08-28T14:00:53.844Z,25.17
2022-08-28T14:01:53.918Z,25.20
2022-08-28T14:02:53.841Z,25.29
2022-08-28T14:03:53.874Z,25.09
2022-08-28T14:04:53.902Z,25.27
2022-08-28T14:05:53.934Z,25.11
2022-08-28T14:06:53.965Z,25.08
2022-08-28T14:07:53.996Z,25.09
2022-08-28T14:08:54.230Z,25.07
2022-08-28T14:09:56.385Z,25.19
2022-08-28T14:10:54.089Z,25.09
2022-08-28T14:11:54.121Z,25.09
2022-08-28T14:12:54.152Z,25.29
2022-08-28T14:13:55.723Z,25.22
2022-08-28T14:14:54.213Z,25.24
2022-08-28T14:15:54.244Z,25.34
2022-08-28T14:16:54.308Z,25.32
2022-08-28T14:17:54.309Z,25.30
2022-08-28T14:18:54.543Z,25.29